Terminal Aerodrome Forecast
Issued by NWS

Current Version | Previous Version | Text Only | Print | Product List | Glossary On
Versions: 1 2 3 4 5 6 7 8 9 10 11 12 13 14 15
278
FTUS42 KTAE 242337
TAFVLD
TAF
KVLD 242337Z 2500/2524 20005KT P6SM SCT050
     FM251000 00000KT 3SM BR BKN007
     FM251400 22004KT P6SM SCT015
     FM251500 22004KT P6SM -TSRA BKN050CB=

USA.gov is the U.S. government's official web portal to all federal, state and local government web resources and services.